createdAt,value
2022-12-18T00:00:43.376Z,4.07
2022-12-18T00:03:52.360Z,3.65
2022-12-18T00:09:41.903Z,3.58
2022-12-18T00:12:38.992Z,3.33
2022-12-18T00:15:15.179Z,3.47
2022-12-18T00:17:59.814Z,4.03
2022-12-18T00:20:45.385Z,3.75
2022-12-18T00:23:25.512Z,3.90
2022-12-18T00:26:19.528Z,4.03
2022-12-18T00:29:12.195Z,3.88
2022-12-18T00:31:56.813Z,2.97
2022-12-18T00:34:44.429Z,4.65
2022-12-18T00:37:33.921Z,3.95
2022-12-18T00:40:20.430Z,3.30
2022-12-18T00:43:00.514Z,3.78
2022-12-18T00:46:01.755Z,3.20
2022-12-18T00:51:36.415Z,3.50
2022-12-18T00:54:28.870Z,4.15
2022-12-18T01:00:10.904Z,2.50
2022-12-18T01:02:54.839Z,3.33
2022-12-18T01:05:43.714Z,3.58
2022-12-18T01:08:38.931Z,3.13
2022-12-18T01:11:27.429Z,3.78
2022-12-18T01:14:17.991Z,3.50
2022-12-18T01:17:05.995Z,3.15
2022-12-18T01:19:51.562Z,3.58
2022-12-18T01:25:33.512Z,4.25
2022-12-18T01:28:19.927Z,3.10
2022-12-18T01:33:53.278Z,3.33
2022-12-18T01:36:43.039Z,2.83
2022-12-18T01:39:31.845Z,3.28
2022-12-18T01:42:27.134Z,2.92
2022-12-18T01:45:21.779Z,3.20
2022-12-18T01:48:28.675Z,3.53
2022-12-18T01:51:04.122Z,3.63
2022-12-18T01:53:47.726Z,3.50
2022-12-18T01:56:31.716Z,4.50
2022-12-18T01:59:35.776Z,3.47
2022-12-18T02:02:18.646Z,4.28
2022-12-18T02:04:56.423Z,2.90
2022-12-18T02:07:51.965Z,3.63
2022-12-18T02:10:45.149Z,2.95
2022-12-18T02:16:51.052Z,2.80
2022-12-18T02:19:54.104Z,3.13
2022-12-18T02:22:54.886Z,3.00
2022-12-18T02:25:46.227Z,3.20
2022-12-18T02:28:41.960Z,3.17
2022-12-18T02:31:41.191Z,2.70
2022-12-18T02:34:21.538Z,2.92
2022-12-18T02:37:06.199Z,2.80
2022-12-18T02:40:10.767Z,2.92
2022-12-18T02:46:45.470Z,2.90
2022-12-18T02:49:50.229Z,3.78
2022-12-18T02:52:39.105Z,3.10
2022-12-18T02:55:32.770Z,4.47
2022-12-18T02:58:19.640Z,3.88
2022-12-18T03:01:13.378Z,3.50
2022-12-18T03:04:00.808Z,3.00
2022-12-18T03:06:45.971Z,3.55
2022-12-18T03:09:40.379Z,3.20
2022-12-18T03:12:33.012Z,3.55
2022-12-18T03:15:22.419Z,3.22
2022-12-18T03:18:22.450Z,3.15
2022-12-18T03:21:27.449Z,2.47
2022-12-18T03:24:06.900Z,3.53
2022-12-18T03:30:02.052Z,3.60
2022-12-18T03:33:11.081Z,3.58
2022-12-18T03:36:03.484Z,4.07
2022-12-18T03:38:58.752Z,4.07
2022-12-18T03:41:43.858Z,3.53
2022-12-18T03:47:32.761Z,2.63
2022-12-18T03:50:27.444Z,3.00
2022-12-18T03:53:35.487Z,2.35
2022-12-18T03:56:35.849Z,2.58
2022-12-18T03:59:37.901Z,3.10
2022-12-18T04:02:17.161Z,3.05
2022-12-18T04:04:53.316Z,3.03
2022-12-18T04:07:39.185Z,3.20
2022-12-18T04:10:19.111Z,3.28
2022-12-18T04:13:04.211Z,2.30
2022-12-18T04:15:57.831Z,2.58
2022-12-18T04:18:51.794Z,2.10
2022-12-18T04:21:37.393Z,2.10
2022-12-18T04:24:27.165Z,2.55
2022-12-18T04:27:11.772Z,2.20
2022-12-18T04:29:58.277Z,2.33
2022-12-18T04:32:49.042Z,2.40
2022-12-18T04:35:47.463Z,2.15
2022-12-18T04:38:26.260Z,2.08
2022-12-18T04:41:04.808Z,2.28
2022-12-18T04:43:51.251Z,2.38
2022-12-18T04:46:37.138Z,1.80
2022-12-18T04:49:16.532Z,1.95
2022-12-18T04:55:05.936Z,1.98
2022-12-18T04:58:00.654Z,1.83
2022-12-18T05:00:52.029Z,2.28
2022-12-18T05:03:59.445Z,1.77
2022-12-18T05:06:44.049Z,2.45
2022-12-18T05:09:21.293Z,1.80
2022-12-18T05:12:00.448Z,2.10
2022-12-18T05:14:48.449Z,2.42
2022-12-18T05:17:34.262Z,1.83
2022-12-18T05:20:27.428Z,2.22
2022-12-18T05:23:09.668Z,2.15
2022-12-18T05:25:54.599Z,2.20
2022-12-18T05:28:45.835Z,1.80
2022-12-18T05:31:37.485Z,2.50
2022-12-18T05:37:47.968Z,2.22
2022-12-18T05:40:41.909Z,2.00
2022-12-18T05:43:24.973Z,2.20
2022-12-18T05:46:06.371Z,2.10
2022-12-18T05:49:00.829Z,2.40
2022-12-18T05:55:05.756Z,2.25
2022-12-18T05:57:52.688Z,2.15
2022-12-18T06:00:44.510Z,2.53
2022-12-18T06:03:34.751Z,2.42
2022-12-18T06:06:22.446Z,2.28
2022-12-18T06:09:14.997Z,2.42
2022-12-18T06:12:11.136Z,2.20
2022-12-18T06:15:05.528Z,2.63
2022-12-18T06:17:44.491Z,2.58
2022-12-18T06:20:36.806Z,2.17
2022-12-18T06:23:26.368Z,2.20
2022-12-18T06:26:24.626Z,2.05
2022-12-18T06:29:16.268Z,2.55
2022-12-18T06:32:20.860Z,2.30
2022-12-18T06:34:57.661Z,2.33
2022-12-18T06:37:41.534Z,2.33
2022-12-18T06:40:33.899Z,2.45
2022-12-18T06:43:22.383Z,2.58
2022-12-18T06:46:09.550Z,2.38
2022-12-18T06:48:47.635Z,2.42
2022-12-18T06:51:32.237Z,2.20
2022-12-18T06:54:12.097Z,2.10
2022-12-18T06:56:48.293Z,2.33
2022-12-18T06:59:28.310Z,2.28
2022-12-18T07:02:28.850Z,5.38
2022-12-18T07:11:48.901Z,2.28
2022-12-18T07:17:43.891Z,2.22
2022-12-18T07:20:24.108Z,2.70
2022-12-18T07:23:02.690Z,2.20
2022-12-18T07:25:48.015Z,1.90
2022-12-18T07:28:44.551Z,2.50
2022-12-18T07:31:31.122Z,2.58
2022-12-18T07:34:25.477Z,2.85
2022-12-18T07:37:01.675Z,2.63
2022-12-18T07:39:43.997Z,2.63
2022-12-18T07:42:36.111Z,2.90
2022-12-18T07:45:27.666Z,2.60
2022-12-18T07:48:24.707Z,2.67
2022-12-18T07:51:14.235Z,2.15
2022-12-18T07:54:13.906Z,2.75
2022-12-18T07:57:09.932Z,2.80
2022-12-18T08:00:03.146Z,2.45
2022-12-18T08:03:08.532Z,2.38
2022-12-18T08:05:52.854Z,2.63
2022-12-18T08:09:04.364Z,2.58
2022-12-18T08:11:43.022Z,4.13
2022-12-18T08:14:19.363Z,3.53
2022-12-18T08:20:01.632Z,3.38
2022-12-18T08:22:48.653Z,3.88
2022-12-18T08:25:33.580Z,3.42
2022-12-18T08:31:24.498Z,3.50
2022-12-18T08:34:09.403Z,4.65
2022-12-18T08:36:52.370Z,3.92
2022-12-18T08:39:53.849Z,4.70
2022-12-18T08:43:10.226Z,5.00
2022-12-18T08:45:50.635Z,4.00
2022-12-18T08:48:27.829Z,2.90
2022-12-18T08:51:20.743Z,3.38
2022-12-18T08:54:07.996Z,5.00
2022-12-18T08:57:02.310Z,3.92
2022-12-18T08:59:49.289Z,3.83
2022-12-18T09:02:28.610Z,4.63
2022-12-18T09:05:13.813Z,4.32
2022-12-18T09:08:08.758Z,3.05
2022-12-18T09:10:55.151Z,4.90
2022-12-18T09:13:33.476Z,3.40
2022-12-18T09:16:19.680Z,3.88
2022-12-18T09:22:10.163Z,2.55
2022-12-18T09:25:04.319Z,2.58
2022-12-18T09:27:48.898Z,2.05
2022-12-18T09:33:35.769Z,3.05
2022-12-18T09:36:26.078Z,1.90
2022-12-18T09:42:31.727Z,8.02
2022-12-18T09:45:30.022Z,3.50
2022-12-18T09:48:14.911Z,2.42
2022-12-18T09:54:02.253Z,3.13
2022-12-18T09:57:20.787Z,2.30
2022-12-18T10:00:03.651Z,2.95
2022-12-18T10:02:40.396Z,3.08
2022-12-18T10:09:01.269Z,3.35
2022-12-18T10:15:22.695Z,2.05
2022-12-18T10:18:31.954Z,2.50
2022-12-18T10:21:27.050Z,2.40
2022-12-18T10:24:40.972Z,3.30
2022-12-18T10:27:27.586Z,3.47
2022-12-18T10:36:13.097Z,3.92
2022-12-18T10:38:50.089Z,4.78
2022-12-18T10:45:45.315Z,2.70
2022-12-18T10:48:38.397Z,4.10
2022-12-18T10:51:35.472Z,4.68
2022-12-18T10:54:13.579Z,8.20
2022-12-18T10:57:49.206Z,4.90
2022-12-18T11:03:48.380Z,4.30
2022-12-18T11:06:34.863Z,3.15
2022-12-18T11:09:46.791Z,6.25
2022-12-18T11:12:56.502Z,6.57
2022-12-18T11:15:39.903Z,13.63
2022-12-18T11:18:52.792Z,8.05
2022-12-18T11:21:50.404Z,9.35
2022-12-18T11:25:22.474Z,8.13
2022-12-18T11:31:32.746Z,6.28
2022-12-18T11:34:29.736Z,5.72
2022-12-18T11:40:26.310Z,2.72
2022-12-18T11:43:10.125Z,2.80
2022-12-18T11:45:57.077Z,2.90
2022-12-18T11:48:57.447Z,7.93
2022-12-18T11:51:55.341Z,12.13
2022-12-18T11:54:32.890Z,6.38
2022-12-18T12:00:35.552Z,7.55
2022-12-18T12:04:15.942Z,3.25
2022-12-18T12:07:18.309Z,2.53
2022-12-18T12:10:29.605Z,2.20
2022-12-18T12:13:32.683Z,2.58
2022-12-18T12:16:34.704Z,2.30
2022-12-18T12:19:48.484Z,2.35
2022-12-18T12:22:48.670Z,2.58
2022-12-18T12:26:05.705Z,2.33
2022-12-18T12:29:03.747Z,2.83
2022-12-18T12:31:58.703Z,2.28
2022-12-18T12:35:07.744Z,2.15
2022-12-18T12:38:05.080Z,2.13
2022-12-18T12:43:55.137Z,2.38
2022-12-18T12:46:42.293Z,2.65
2022-12-18T12:49:26.127Z,2.03
2022-12-18T12:52:30.644Z,2.47
2022-12-18T12:55:49.791Z,2.10
2022-12-18T12:58:45.369Z,2.30
2022-12-18T13:01:35.293Z,2.40
2022-12-18T13:04:29.357Z,2.28
2022-12-18T13:07:23.862Z,2.00
2022-12-18T13:10:40.811Z,2.10
2022-12-18T13:13:36.416Z,1.92
2022-12-18T13:16:14.745Z,2.15
2022-12-18T13:19:01.615Z,2.60
2022-12-18T13:22:02.920Z,3.15
2022-12-18T13:24:43.481Z,3.10
2022-12-18T13:27:59.330Z,2.88
2022-12-18T13:31:15.941Z,5.25
2022-12-18T13:34:25.006Z,4.65
2022-12-18T13:37:01.036Z,3.67
2022-12-18T13:39:47.805Z,2.75
2022-12-18T13:46:10.538Z,2.25
2022-12-18T13:49:09.977Z,2.42
2022-12-18T13:51:59.141Z,2.20
2022-12-18T13:54:53.821Z,2.25
2022-12-18T13:57:53.345Z,2.03
2022-12-18T14:03:54.576Z,2.20
2022-12-18T14:06:40.892Z,2.30
2022-12-18T14:09:36.041Z,2.10
2022-12-18T14:12:32.376Z,2.50
2022-12-18T14:15:20.057Z,2.63
2022-12-18T14:18:14.276Z,4.93
2022-12-18T14:24:27.706Z,2.88
2022-12-18T14:27:29.880Z,2.78
2022-12-18T14:30:08.012Z,6.25
2022-12-18T14:33:02.705Z,8.25
2022-12-18T14:35:50.231Z,6.43
2022-12-18T14:38:45.691Z,3.83
2022-12-18T14:41:43.188Z,3.08
2022-12-18T14:44:44.153Z,2.90
2022-12-18T14:47:43.915Z,2.00
2022-12-18T14:50:28.749Z,2.58
2022-12-18T14:53:09.744Z,2.72
2022-12-18T14:55:55.529Z,3.33
2022-12-18T14:58:45.113Z,3.92
2022-12-18T15:01:37.541Z,4.63
2022-12-18T15:04:31.428Z,4.43
2022-12-18T15:07:19.393Z,9.80
2022-12-18T15:10:17.464Z,6.20
2022-12-18T15:13:49.873Z,5.68
2022-12-18T15:16:46.219Z,3.03
2022-12-18T15:19:29.441Z,2.58
2022-12-18T15:22:07.800Z,3.05
2022-12-18T15:25:10.443Z,2.30
2022-12-18T15:27:59.807Z,2.50
2022-12-18T15:30:52.250Z,7.88
2022-12-18T15:33:58.656Z,10.57
2022-12-18T15:37:03.457Z,10.65
2022-12-18T15:40:10.999Z,13.90
2022-12-18T15:43:11.687Z,7.63
2022-12-18T15:45:51.324Z,7.57
2022-12-18T15:48:36.578Z,3.45
2022-12-18T15:51:18.939Z,2.15
2022-12-18T15:54:01.880Z,9.15
2022-12-18T15:57:13.805Z,7.20
2022-12-18T16:00:06.451Z,4.25
2022-12-18T16:02:53.846Z,7.10
2022-12-18T16:05:48.645Z,10.75
2022-12-18T16:08:36.795Z,9.18
2022-12-18T16:11:13.328Z,5.05
2022-12-18T16:13:54.583Z,3.30
2022-12-18T16:16:30.618Z,2.80
2022-12-18T16:22:43.910Z,2.45
2022-12-18T16:25:46.956Z,2.17
2022-12-18T16:28:48.274Z,2.58
2022-12-18T16:31:36.957Z,8.23
2022-12-18T16:34:44.432Z,9.82
2022-12-18T16:38:00.176Z,12.35
2022-12-18T16:41:10.239Z,10.18
2022-12-18T16:43:54.568Z,6.43
2022-12-18T16:46:41.460Z,4.60
2022-12-18T16:49:37.238Z,10.75
2022-12-18T16:52:20.784Z,4.45
2022-12-18T16:55:04.280Z,3.10
2022-12-18T16:58:10.487Z,3.33
2022-12-18T17:01:24.548Z,3.70
2022-12-18T17:07:14.605Z,2.45
2022-12-18T17:09:51.238Z,2.72
2022-12-18T17:12:47.016Z,2.90
2022-12-18T17:15:27.355Z,2.28
2022-12-18T17:18:35.978Z,3.05
2022-12-18T17:21:37.878Z,2.90
2022-12-18T17:24:24.295Z,3.33
2022-12-18T17:27:18.244Z,3.15
2022-12-18T17:30:04.580Z,3.25
2022-12-18T17:33:05.568Z,2.83
2022-12-18T17:38:50.922Z,2.90
2022-12-18T17:41:29.496Z,2.70
2022-12-18T17:44:15.806Z,2.78
2022-12-18T17:47:03.211Z,2.90
2022-12-18T17:49:49.569Z,2.50
2022-12-18T17:52:38.445Z,2.92
2022-12-18T17:55:20.416Z,2.63
2022-12-18T17:58:09.384Z,2.50
2022-12-18T18:00:46.424Z,2.58
2022-12-18T18:06:45.054Z,2.45
2022-12-18T18:09:22.049Z,2.60
2022-12-18T18:12:16.401Z,2.53
2022-12-18T18:18:29.825Z,2.72
2022-12-18T18:21:32.911Z,2.35
2022-12-18T18:24:22.978Z,2.38
2022-12-18T18:27:06.468Z,3.30
2022-12-18T18:30:00.427Z,2.60
2022-12-18T18:32:50.213Z,3.00
2022-12-18T18:35:55.063Z,2.85
2022-12-18T18:38:41.289Z,2.50
2022-12-18T18:41:24.020Z,2.63
2022-12-18T18:46:59.090Z,2.67
2022-12-18T18:49:52.569Z,3.25
2022-12-18T18:52:37.823Z,2.63
2022-12-18T18:55:25.779Z,2.33
2022-12-18T18:58:09.734Z,2.63
2022-12-18T19:01:05.761Z,2.70
2022-12-18T19:03:44.337Z,2.20
2022-12-18T19:06:29.945Z,2.45
2022-12-18T19:09:26.438Z,2.55
2022-12-18T19:12:35.486Z,2.80
2022-12-18T19:15:15.656Z,2.80
2022-12-18T19:18:01.527Z,2.72
2022-12-18T19:20:46.911Z,2.90
2022-12-18T19:23:31.812Z,2.85
2022-12-18T19:26:27.368Z,2.75
2022-12-18T19:29:21.379Z,2.47
2022-12-18T19:32:02.537Z,2.63
2022-12-18T19:34:54.593Z,2.20
2022-12-18T19:37:46.387Z,2.42
2022-12-18T19:40:38.508Z,2.40
2022-12-18T19:43:15.983Z,2.20
2022-12-18T19:46:09.396Z,2.10
2022-12-18T19:49:04.920Z,2.10
2022-12-18T19:51:50.837Z,2.20
2022-12-18T19:54:30.472Z,2.30
2022-12-18T19:57:17.696Z,2.22
2022-12-18T20:00:14.151Z,2.30
2022-12-18T20:03:15.576Z,2.72
2022-12-18T20:06:08.089Z,3.80
2022-12-18T20:08:56.798Z,2.45
2022-12-18T20:15:13.006Z,2.83
2022-12-18T20:20:33.414Z,3.03
2022-12-18T20:23:11.429Z,2.67
2022-12-18T20:26:11.614Z,2.70
2022-12-18T20:29:01.624Z,2.45
2022-12-18T20:31:55.140Z,2.65
2022-12-18T20:37:37.537Z,2.10
2022-12-18T20:40:32.694Z,2.47
2022-12-18T20:43:57.763Z,2.42
2022-12-18T20:46:53.469Z,2.53
2022-12-18T20:49:37.774Z,2.88
2022-12-18T20:52:19.187Z,2.80
2022-12-18T20:55:21.135Z,2.70
2022-12-18T20:58:02.869Z,2.50
2022-12-18T21:01:00.854Z,2.67
2022-12-18T21:03:55.672Z,2.53
2022-12-18T21:06:55.826Z,2.70
2022-12-18T21:09:38.758Z,2.92
2022-12-18T21:12:56.759Z,4.15
2022-12-18T21:15:55.673Z,4.45
2022-12-18T21:18:38.054Z,3.60
2022-12-18T21:21:20.703Z,3.30
2022-12-18T21:24:11.330Z,3.00
2022-12-18T21:29:52.904Z,4.07
2022-12-18T21:32:39.328Z,3.08
2022-12-18T21:35:32.299Z,2.33
2022-12-18T21:38:16.228Z,16.13
2022-12-18T21:44:10.412Z,12.55
2022-12-18T21:47:13.763Z,4.40
2022-12-18T21:49:59.060Z,3.85
2022-12-18T21:53:05.474Z,3.40
2022-12-18T21:58:56.673Z,3.10
2022-12-18T22:01:38.808Z,3.10
2022-12-18T22:04:25.358Z,4.30
2022-12-18T22:07:09.737Z,6.53
2022-12-18T22:13:23.551Z,4.03
2022-12-18T22:16:06.055Z,3.45
2022-12-18T22:18:53.534Z,4.45
2022-12-18T22:21:44.864Z,2.90
2022-12-18T22:24:28.142Z,2.67
2022-12-18T22:27:17.190Z,3.00
2022-12-18T22:30:12.600Z,2.67
2022-12-18T22:32:50.123Z,3.00
2022-12-18T22:35:30.114Z,2.80
2022-12-18T22:38:15.195Z,2.60
2022-12-18T22:40:52.562Z,3.20
2022-12-18T22:43:37.467Z,3.00
2022-12-18T22:46:17.016Z,2.80
2022-12-18T22:49:11.079Z,2.83
2022-12-18T22:51:57.490Z,2.72
2022-12-18T22:54:36.207Z,3.15
2022-12-18T22:57:25.198Z,2.97
2022-12-18T23:00:16.853Z,2.83
2022-12-18T23:03:10.995Z,2.88
2022-12-18T23:05:49.349Z,2.67
2022-12-18T23:08:31.771Z,5.05
2022-12-18T23:11:39.179Z,11.43
2022-12-18T23:14:31.963Z,24.42
2022-12-18T23:17:20.923Z,39.55
2022-12-18T23:23:10.873Z,26.20
2022-12-18T23:25:57.321Z,23.08
2022-12-18T23:28:52.229Z,19.92
2022-12-18T23:31:50.699Z,19.42
2022-12-18T23:34:39.510Z,17.85
2022-12-18T23:37:57.390Z,14.18
2022-12-18T23:40:43.892Z,18.15
2022-12-18T23:43:24.831Z,17.25
2022-12-18T23:49:20.313Z,7.07
2022-12-18T23:52:08.943Z,7.05
2022-12-18T23:54:47.916Z,6.90
2022-12-18T23:57:42.283Z,6.82
